sensor_id;sensor_type;location;lat;lon;timestamp;temperature;humidity
17215;DHT22;8723;51.502;6.918;2023-04-24T00:01:26;11.30;99.90
17215;DHT22;8723;51.502;6.918;2023-04-24T00:03:54;11.20;99.90
17215;DHT22;8723;51.502;6.918;2023-04-24T00:06:25;11.20;99.90
17215;DHT22;8723;51.502;6.918;2023-04-24T00:09:00;11.20;99.90
17215;DHT22;8723;51.502;6.918;2023-04-24T00:11:28;11.10;99.90
17215;DHT22;8723;51.502;6.918;2023-04-24T00:13:55;11.20;99.90
17215;DHT22;8723;51.502;6.918;2023-04-24T00:16:22;11.20;99.90
17215;DHT22;8723;51.502;6.918;2023-04-24T00:18:49;11.20;99.90
17215;DHT22;8723;51.502;6.918;2023-04-24T00:21:18;11.20;99.90
17215;DHT22;8723;51.502;6.918;2023-04-24T00:23:45;11.30;86.30
17215;DHT22;8723;51.502;6.918;2023-04-24T00:26:13;11.30;63.10
17215;DHT22;8723;51.502;6.918;2023-04-24T00:28:40;11.30;82.80
17215;DHT22;8723;51.502;6.918;2023-04-24T00:31:07;11.30;58.40
17215;DHT22;8723;51.502;6.918;2023-04-24T00:33:34;11.30;19.10
17215;DHT22;8723;51.502;6.918;2023-04-24T00:36:01;11.30;90.80
17215;DHT22;8723;51.502;6.918;2023-04-24T00:38:28;11.30;76.10
17215;DHT22;8723;51.502;6.918;2023-04-24T00:40:55;11.30;1.00
17215;DHT22;8723;51.502;6.918;2023-04-24T00:43:24;11.30;1.00
17215;DHT22;8723;51.502;6.918;2023-04-24T00:45:51;11.30;1.00
17215;DHT22;8723;51.502;6.918;2023-04-24T00:48:18;11.20;1.00
17215;DHT22;8723;51.502;6.918;2023-04-24T00:50:45;11.20;1.00
17215;DHT22;8723;51.502;6.918;2023-04-24T00:53:12;11.20;1.00
17215;DHT22;8723;51.502;6.918;2023-04-24T00:55:40;11.20;1.00
17215;DHT22;8723;51.502;6.918;2023-04-24T00:58:07;11.20;8.80
17215;DHT22;8723;51.502;6.918;2023-04-24T01:00:36;11.10;1.00
17215;DHT22;8723;51.502;6.918;2023-04-24T01:03:04;11.00;48.00
17215;DHT22;8723;51.502;6.918;2023-04-24T01:05:32;11.00;93.10
17215;DHT22;8723;51.502;6.918;2023-04-24T01:07:59;11.00;1.00
17215;DHT22;8723;51.502;6.918;2023-04-24T01:10:29;11.00;62.10
17215;DHT22;8723;51.502;6.918;2023-04-24T01:12:58;10.90;1.00
17215;DHT22;8723;51.502;6.918;2023-04-24T01:15:25;10.90;1.00
17215;DHT22;8723;51.502;6.918;2023-04-24T01:17:53;10.80;1.00
17215;DHT22;8723;51.502;6.918;2023-04-24T01:20:21;10.70;1.00
17215;DHT22;8723;51.502;6.918;2023-04-24T01:22:52;10.60;1.00
17215;DHT22;8723;51.502;6.918;2023-04-24T01:25:19;10.60;1.00
17215;DHT22;8723;51.502;6.918;2023-04-24T01:27:46;10.50;1.00
17215;DHT22;8723;51.502;6.918;2023-04-24T01:30:14;10.40;1.00
17215;DHT22;8723;51.502;6.918;2023-04-24T01:32:41;10.40;1.00
17215;DHT22;8723;51.502;6.918;2023-04-24T01:35:10;10.30;11.40
17215;DHT22;8723;51.502;6.918;2023-04-24T01:37:37;10.30;23.20
17215;DHT22;8723;51.502;6.918;2023-04-24T01:40:07;10.30;1.00
17215;DHT22;8723;51.502;6.918;2023-04-24T01:42:34;10.30;13.60
17215;DHT22;8723;51.502;6.918;2023-04-24T01:45:02;10.30;3.50
17215;DHT22;8723;51.502;6.918;2023-04-24T01:47:31;10.20;96.00
17215;DHT22;8723;51.502;6.918;2023-04-24T01:49:58;10.30;99.90
17215;DHT22;8723;51.502;6.918;2023-04-24T01:52:25;10.30;99.90
17215;DHT22;8723;51.502;6.918;2023-04-24T01:54:52;10.30;99.90
17215;DHT22;8723;51.502;6.918;2023-04-24T01:57:22;10.30;99.90
17215;DHT22;8723;51.502;6.918;2023-04-24T01:59:49;10.40;99.90
17215;DHT22;8723;51.502;6.918;2023-04-24T02:02:17;10.30;99.90
17215;DHT22;8723;51.502;6.918;2023-04-24T02:04:44;10.30;99.90
17215;DHT22;8723;51.502;6.918;2023-04-24T02:07:11;10.40;99.90
17215;DHT22;8723;51.502;6.918;2023-04-24T02:09:38;10.30;97.30
17215;DHT22;8723;51.502;6.918;2023-04-24T02:12:04;10.40;99.90
17215;DHT22;8723;51.502;6.918;2023-04-24T02:14:33;10.40;89.90
17215;DHT22;8723;51.502;6.918;2023-04-24T02:17:00;10.40;99.90
17215;DHT22;8723;51.502;6.918;2023-04-24T02:19:27;10.40;99.90
17215;DHT22;8723;51.502;6.918;2023-04-24T02:21:54;10.30;99.90
17215;DHT22;8723;51.502;6.918;2023-04-24T02:24:21;10.40;99.90
17215;DHT22;8723;51.502;6.918;2023-04-24T02:26:48;10.30;18.10
17215;DHT22;8723;51.502;6.918;2023-04-24T02:29:15;10.30;15.30
17215;DHT22;8723;51.502;6.918;2023-04-24T02:31:43;10.30;43.60
17215;DHT22;8723;51.502;6.918;2023-04-24T02:34:10;10.30;89.40
17215;DHT22;8723;51.502;6.918;2023-04-24T02:36:37;10.30;41.50
17215;DHT22;8723;51.502;6.918;2023-04-24T02:39:04;10.30;99.90
17215;DHT22;8723;51.502;6.918;2023-04-24T02:41:31;10.30;99.90
17215;DHT22;8723;51.502;6.918;2023-04-24T02:43:58;10.20;99.90
17215;DHT22;8723;51.502;6.918;2023-04-24T02:46:25;10.20;99.90
17215;DHT22;8723;51.502;6.918;2023-04-24T02:48:53;10.20;99.90
17215;DHT22;8723;51.502;6.918;2023-04-24T02:51:21;10.20;99.90
17215;DHT22;8723;51.502;6.918;2023-04-24T02:53:47;10.20;99.90
17215;DHT22;8723;51.502;6.918;2023-04-24T02:56:14;10.20;99.90
17215;DHT22;8723;51.502;6.918;2023-04-24T02:58:41;10.30;98.70
17215;DHT22;8723;51.502;6.918;2023-04-24T03:01:08;10.20;99.90
17215;DHT22;8723;51.502;6.918;2023-04-24T03:03:36;10.30;99.90
17215;DHT22;8723;51.502;6.918;2023-04-24T03:06:04;10.20;99.90
17215;DHT22;8723;51.502;6.918;2023-04-24T03:08:31;10.20;99.90
17215;DHT22;8723;51.502;6.918;2023-04-24T03:10:58;10.20;99.90
17215;DHT22;8723;51.502;6.918;2023-04-24T03:13:25;10.20;99.90
17215;DHT22;8723;51.502;6.918;2023-04-24T03:15:52;10.20;99.90
17215;DHT22;8723;51.502;6.918;2023-04-24T03:18:19;10.20;15.40
17215;DHT22;8723;51.502;6.918;2023-04-24T03:20:46;10.20;99.90
17215;DHT22;8723;51.502;6.918;2023-04-24T03:23:15;10.20;40.70
17215;DHT22;8723;51.502;6.918;2023-04-24T03:25:41;10.20;99.90
17215;DHT22;8723;51.502;6.918;2023-04-24T03:28:09;10.20;99.90
17215;DHT22;8723;51.502;6.918;2023-04-24T03:30:36;10.20;99.90
17215;DHT22;8723;51.502;6.918;2023-04-24T03:33:03;10.10;99.90
17215;DHT22;8723;51.502;6.918;2023-04-24T03:35:29;10.20;99.90
17215;DHT22;8723;51.502;6.918;2023-04-24T03:37:56;10.10;78.20
17215;DHT22;8723;51.502;6.918;2023-04-24T03:40:24;10.20;99.90
17215;DHT22;8723;51.502;6.918;2023-04-24T03:42:51;10.10;99.90
17215;DHT22;8723;51.502;6.918;2023-04-24T03:45:18;10.20;99.90
17215;DHT22;8723;51.502;6.918;2023-04-24T03:47:45;10.20;99.90
17215;DHT22;8723;51.502;6.918;2023-04-24T03:50:12;10.10;59.70
17215;DHT22;8723;51.502;6.918;2023-04-24T03:52:39;10.10;1.00
17215;DHT22;8723;51.502;6.918;2023-04-24T03:55:06;10.20;23.20
17215;DHT22;8723;51.502;6.918;2023-04-24T03:57:35;10.10;54.30
17215;DHT22;8723;51.502;6.918;2023-04-24T04:00:02;10.20;11.00
17215;DHT22;8723;51.502;6.918;2023-04-24T04:02:31;10.10;12.90
17215;DHT22;8723;51.502;6.918;2023-04-24T04:04:58;10.20;15.30
17215;DHT22;8723;51.502;6.918;2023-04-24T04:07:25;10.20;69.00
17215;DHT22;8723;51.502;6.918;2023-04-24T04:09:52;10.20;80.50
17215;DHT22;8723;51.502;6.918;2023-04-24T04:12:19;10.20;90.00
17215;DHT22;8723;51.502;6.918;2023-04-24T04:14:47;10.20;40.70
17215;DHT22;8723;51.502;6.918;2023-04-24T04:17:14;10.20;9.20
17215;DHT22;8723;51.502;6.918;2023-04-24T04:19:41;10.20;1.00
17215;DHT22;8723;51.502;6.918;2023-04-24T04:22:08;10.20;1.00
17215;DHT22;8723;51.502;6.918;2023-04-24T04:24:34;10.20;1.00
17215;DHT22;8723;51.502;6.918;2023-04-24T04:27:03;10.20;1.00
17215;DHT22;8723;51.502;6.918;2023-04-24T04:29:30;10.20;1.00
17215;DHT22;8723;51.502;6.918;2023-04-24T04:31:59;10.20;1.00
17215;DHT22;8723;51.502;6.918;2023-04-24T04:34:26;10.20;1.00
17215;DHT22;8723;51.502;6.918;2023-04-24T04:36:53;10.20;1.00
17215;DHT22;8723;51.502;6.918;2023-04-24T04:39:20;10.20;1.00
17215;DHT22;8723;51.502;6.918;2023-04-24T04:41:47;10.20;1.00
17215;DHT22;8723;51.502;6.918;2023-04-24T04:44:14;10.20;1.00
17215;DHT22;8723;51.502;6.918;2023-04-24T04:46:41;10.20;1.00
17215;DHT22;8723;51.502;6.918;2023-04-24T04:49:10;10.20;1.00
17215;DHT22;8723;51.502;6.918;2023-04-24T04:51:38;10.20;1.00
17215;DHT22;8723;51.502;6.918;2023-04-24T04:54:05;10.20;1.00
17215;DHT22;8723;51.502;6.918;2023-04-24T04:56:32;10.20;1.00
17215;DHT22;8723;51.502;6.918;2023-04-24T04:58:59;10.20;1.00
17215;DHT22;8723;51.502;6.918;2023-04-24T05:01:26;10.20;1.00
17215;DHT22;8723;51.502;6.918;2023-04-24T05:03:53;10.20;1.00
17215;DHT22;8723;51.502;6.918;2023-04-24T05:06:21;10.20;1.00
17215;DHT22;8723;51.502;6.918;2023-04-24T05:08:48;10.20;1.00
17215;DHT22;8723;51.502;6.918;2023-04-24T05:11:15;10.20;1.00
17215;DHT22;8723;51.502;6.918;2023-04-24T05:13:42;10.10;1.00
17215;DHT22;8723;51.502;6.918;2023-04-24T05:16:09;10.20;1.00
17215;DHT22;8723;51.502;6.918;2023-04-24T05:18:36;10.20;1.00
17215;DHT22;8723;51.502;6.918;2023-04-24T05:21:03;10.10;1.00
17215;DHT22;8723;51.502;6.918;2023-04-24T05:23:31;10.20;1.00
17215;DHT22;8723;51.502;6.918;2023-04-24T05:25:58;10.10;1.00
17215;DHT22;8723;51.502;6.918;2023-04-24T05:28:25;10.10;1.00
17215;DHT22;8723;51.502;6.918;2023-04-24T05:30:53;10.00;71.20
17215;DHT22;8723;51.502;6.918;2023-04-24T05:33:20;9.90;99.90
17215;DHT22;8723;51.502;6.918;2023-04-24T05:35:47;9.80;1.00
17215;DHT22;8723;51.502;6.918;2023-04-24T05:38:14;9.80;31.20
17215;DHT22;8723;51.502;6.918;2023-04-24T05:40:44;9.80;1.00
17215;DHT22;8723;51.502;6.918;2023-04-24T05:43:11;9.70;99.90
17215;DHT22;8723;51.502;6.918;2023-04-24T05:45:38;9.70;99.90
17215;DHT22;8723;51.502;6.918;2023-04-24T05:48:05;9.60;99.90
17215;DHT22;8723;51.502;6.918;2023-04-24T05:50:32;9.60;1.00
17215;DHT22;8723;51.502;6.918;2023-04-24T05:52:59;9.60;1.00
17215;DHT22;8723;51.502;6.918;2023-04-24T05:55:27;9.60;1.00
17215;DHT22;8723;51.502;6.918;2023-04-24T05:57:55;9.60;1.00
17215;DHT22;8723;51.502;6.918;2023-04-24T06:00:24;9.60;1.00
17215;DHT22;8723;51.502;6.918;2023-04-24T06:02:50;9.70;1.00
17215;DHT22;8723;51.502;6.918;2023-04-24T06:05:18;9.70;99.90
17215;DHT22;8723;51.502;6.918;2023-04-24T06:07:45;9.70;99.90
17215;DHT22;8723;51.502;6.918;2023-04-24T06:10:12;9.70;99.90
17215;DHT22;8723;51.502;6.918;2023-04-24T06:12:39;9.70;1.00
17215;DHT22;8723;51.502;6.918;2023-04-24T06:15:09;9.80;1.00
17215;DHT22;8723;51.502;6.918;2023-04-24T06:17:36;9.80;33.90
17215;DHT22;8723;51.502;6.918;2023-04-24T06:20:03;9.80;99.90
17215;DHT22;8723;51.502;6.918;2023-04-24T06:22:31;9.70;99.90
17215;DHT22;8723;51.502;6.918;2023-04-24T06:24:59;9.80;1.00
17215;DHT22;8723;51.502;6.918;2023-04-24T06:27:26;9.70;99.90
17215;DHT22;8723;51.502;6.918;2023-04-24T06:29:53;9.60;99.90
17215;DHT22;8723;51.502;6.918;2023-04-24T06:32:23;9.60;1.00
17215;DHT22;8723;51.502;6.918;2023-04-24T06:34:51;9.60;1.00
17215;DHT22;8723;51.502;6.918;2023-04-24T06:37:18;9.50;99.90
17215;DHT22;8723;51.502;6.918;2023-04-24T06:39:46;9.60;99.90
17215;DHT22;8723;51.502;6.918;2023-04-24T06:42:12;9.50;1.00
17215;DHT22;8723;51.502;6.918;2023-04-24T06:44:39;9.50;1.00
17215;DHT22;8723;51.502;6.918;2023-04-24T06:47:07;9.50;1.00
17215;DHT22;8723;51.502;6.918;2023-04-24T06:49:36;9.50;1.00
17215;DHT22;8723;51.502;6.918;2023-04-24T06:52:03;9.50;1.00
17215;DHT22;8723;51.502;6.918;2023-04-24T06:54:31;9.50;99.90
17215;DHT22;8723;51.502;6.918;2023-04-24T06:56:58;9.50;1.00
17215;DHT22;8723;51.502;6.918;2023-04-24T06:59:26;9.50;99.90
17215;DHT22;8723;51.502;6.918;2023-04-24T07:01:53;9.50;1.00
17215;DHT22;8723;51.502;6.918;2023-04-24T07:04:20;9.40;1.00
17215;DHT22;8723;51.502;6.918;2023-04-24T07:06:49;9.40;99.90
17215;DHT22;8723;51.502;6.918;2023-04-24T07:09:16;9.50;99.90
17215;DHT22;8723;51.502;6.918;2023-04-24T07:11:43;9.50;1.00
17215;DHT22;8723;51.502;6.918;2023-04-24T07:14:11;9.50;1.00
17215;DHT22;8723;51.502;6.918;2023-04-24T07:16:37;9.50;1.00
17215;DHT22;8723;51.502;6.918;2023-04-24T07:19:05;9.40;99.90
17215;DHT22;8723;51.502;6.918;2023-04-24T07:21:32;9.40;63.00
17215;DHT22;8723;51.502;6.918;2023-04-24T07:24:00;9.40;1.00
17215;DHT22;8723;51.502;6.918;2023-04-24T07:26:29;9.40;1.00
17215;DHT22;8723;51.502;6.918;2023-04-24T07:28:56;9.40;1.00
17215;DHT22;8723;51.502;6.918;2023-04-24T07:31:23;9.40;1.00
17215;DHT22;8723;51.502;6.918;2023-04-24T07:33:50;9.50;5.40
17215;DHT22;8723;51.502;6.918;2023-04-24T07:36:17;9.50;1.00
17215;DHT22;8723;51.502;6.918;2023-04-24T07:38:44;9.50;99.90
17215;DHT22;8723;51.502;6.918;2023-04-24T07:41:12;9.60;1.00
17215;DHT22;8723;51.502;6.918;2023-04-24T07:43:40;9.60;82.20
17215;DHT22;8723;51.502;6.918;2023-04-24T07:46:07;9.60;1.00
17215;DHT22;8723;51.502;6.918;2023-04-24T07:48:34;9.60;1.00
17215;DHT22;8723;51.502;6.918;2023-04-24T07:51:02;9.60;1.00
17215;DHT22;8723;51.502;6.918;2023-04-24T07:53:29;9.60;99.90
17215;DHT22;8723;51.502;6.918;2023-04-24T07:55:56;9.60;1.00
17215;DHT22;8723;51.502;6.918;2023-04-24T07:58:24;9.60;2.20
17215;DHT22;8723;51.502;6.918;2023-04-24T08:00:51;9.50;99.90
17215;DHT22;8723;51.502;6.918;2023-04-24T08:03:18;9.50;99.90
17215;DHT22;8723;51.502;6.918;2023-04-24T08:05:45;9.40;1.00
17215;DHT22;8723;51.502;6.918;2023-04-24T08:08:13;9.30;1.00
17215;DHT22;8723;51.502;6.918;2023-04-24T08:10:40;9.20;99.90
17215;DHT22;8723;51.502;6.918;2023-04-24T08:13:07;9.10;1.00
17215;DHT22;8723;51.502;6.918;2023-04-24T08:15:35;9.10;1.00
17215;DHT22;8723;51.502;6.918;2023-04-24T08:18:02;9.00;99.90
17215;DHT22;8723;51.502;6.918;2023-04-24T08:20:29;9.00;96.40
17215;DHT22;8723;51.502;6.918;2023-04-24T08:22:56;9.00;99.90
17215;DHT22;8723;51.502;6.918;2023-04-24T08:25:23;9.00;99.90
17215;DHT22;8723;51.502;6.918;2023-04-24T08:27:50;9.00;99.90
17215;DHT22;8723;51.502;6.918;2023-04-24T08:30:17;9.00;99.90
17215;DHT22;8723;51.502;6.918;2023-04-24T08:32:46;8.90;99.90
17215;DHT22;8723;51.502;6.918;2023-04-24T08:35:13;8.90;99.90
17215;DHT22;8723;51.502;6.918;2023-04-24T08:37:40;8.90;99.90
17215;DHT22;8723;51.502;6.918;2023-04-24T08:40:11;8.90;99.90
17215;DHT22;8723;51.502;6.918;2023-04-24T08:42:39;8.90;99.90
17215;DHT22;8723;51.502;6.918;2023-04-24T08:45:09;9.00;99.90
17215;DHT22;8723;51.502;6.918;2023-04-24T08:47:37;8.90;99.90
17215;DHT22;8723;51.502;6.918;2023-04-24T08:50:07;9.00;99.90
17215;DHT22;8723;51.502;6.918;2023-04-24T08:52:35;9.00;99.90
17215;DHT22;8723;51.502;6.918;2023-04-24T08:55:03;9.10;99.90
17215;DHT22;8723;51.502;6.918;2023-04-24T08:57:31;9.20;99.90
17215;DHT22;8723;51.502;6.918;2023-04-24T08:59:59;9.30;99.90
17215;DHT22;8723;51.502;6.918;2023-04-24T09:02:26;9.40;99.90
17215;DHT22;8723;51.502;6.918;2023-04-24T09:04:56;9.50;99.90
17215;DHT22;8723;51.502;6.918;2023-04-24T09:07:26;9.50;99.90
17215;DHT22;8723;51.502;6.918;2023-04-24T09:09:54;9.60;99.90
17215;DHT22;8723;51.502;6.918;2023-04-24T09:12:21;9.60;99.90
17215;DHT22;8723;51.502;6.918;2023-04-24T09:14:49;9.60;99.90
17215;DHT22;8723;51.502;6.918;2023-04-24T09:17:16;9.60;99.90
17215;DHT22;8723;51.502;6.918;2023-04-24T09:19:43;9.40;99.90
17215;DHT22;8723;51.502;6.918;2023-04-24T09:22:11;9.40;99.90
17215;DHT22;8723;51.502;6.918;2023-04-24T09:24:40;9.30;99.90
17215;DHT22;8723;51.502;6.918;2023-04-24T09:27:07;9.30;99.90
17215;DHT22;8723;51.502;6.918;2023-04-24T09:29:34;9.10;99.90
17215;DHT22;8723;51.502;6.918;2023-04-24T09:32:18;9.00;99.90
17215;DHT22;8723;51.502;6.918;2023-04-24T09:34:47;9.10;99.90
17215;DHT22;8723;51.502;6.918;2023-04-24T09:37:27;9.10;99.90
17215;DHT22;8723;51.502;6.918;2023-04-24T09:40:09;9.10;99.90
17215;DHT22;8723;51.502;6.918;2023-04-24T09:42:37;9.10;99.90
17215;DHT22;8723;51.502;6.918;2023-04-24T09:45:06;9.10;99.90
17215;DHT22;8723;51.502;6.918;2023-04-24T09:47:36;9.10;99.90
17215;DHT22;8723;51.502;6.918;2023-04-24T09:50:10;9.10;99.90
17215;DHT22;8723;51.502;6.918;2023-04-24T09:52:40;9.10;99.90
17215;DHT22;8723;51.502;6.918;2023-04-24T09:55:13;9.00;99.90
17215;DHT22;8723;51.502;6.918;2023-04-24T09:57:54;9.00;99.90
17215;DHT22;8723;51.502;6.918;2023-04-24T10:00:26;8.90;99.90
17215;DHT22;8723;51.502;6.918;2023-04-24T10:02:57;8.90;99.90
17215;DHT22;8723;51.502;6.918;2023-04-24T10:05:26;9.00;99.90
17215;DHT22;8723;51.502;6.918;2023-04-24T10:07:57;9.00;99.90
17215;DHT22;8723;51.502;6.918;2023-04-24T10:10:26;9.00;99.90
17215;DHT22;8723;51.502;6.918;2023-04-24T10:12:53;9.00;99.90
17215;DHT22;8723;51.502;6.918;2023-04-24T10:15:21;9.00;99.90
17215;DHT22;8723;51.502;6.918;2023-04-24T10:17:49;9.00;99.90
17215;DHT22;8723;51.502;6.918;2023-04-24T10:20:19;9.00;99.90
17215;DHT22;8723;51.502;6.918;2023-04-24T10:22:48;9.10;99.90
17215;DHT22;8723;51.502;6.918;2023-04-24T10:25:17;9.00;99.90
17215;DHT22;8723;51.502;6.918;2023-04-24T10:27:47;9.10;99.90
17215;DHT22;8723;51.502;6.918;2023-04-24T10:30:14;9.00;99.90
17215;DHT22;8723;51.502;6.918;2023-04-24T10:32:42;9.00;99.90
17215;DHT22;8723;51.502;6.918;2023-04-24T10:35:09;9.10;99.90
17215;DHT22;8723;51.502;6.918;2023-04-24T10:37:38;9.10;99.90
17215;DHT22;8723;51.502;6.918;2023-04-24T10:40:08;9.10;99.90
17215;DHT22;8723;51.502;6.918;2023-04-24T10:42:36;9.20;99.90
17215;DHT22;8723;51.502;6.918;2023-04-24T10:45:16;9.10;99.90
17215;DHT22;8723;51.502;6.918;2023-04-24T10:47:56;9.20;99.90
17215;DHT22;8723;51.502;6.918;2023-04-24T10:50:25;9.20;99.90
17215;DHT22;8723;51.502;6.918;2023-04-24T10:52:52;9.20;99.90
17215;DHT22;8723;51.502;6.918;2023-04-24T10:55:40;9.20;99.90
17215;DHT22;8723;51.502;6.918;2023-04-24T10:58:07;9.20;99.90
17215;DHT22;8723;51.502;6.918;2023-04-24T11:00:38;9.30;99.90
17215;DHT22;8723;51.502;6.918;2023-04-24T11:03:06;9.30;99.90
17215;DHT22;8723;51.502;6.918;2023-04-24T11:05:54;9.40;99.90
17215;DHT22;8723;51.502;6.918;2023-04-24T11:08:24;9.50;99.90
17215;DHT22;8723;51.502;6.918;2023-04-24T11:10:56;9.50;99.90
17215;DHT22;8723;51.502;6.918;2023-04-24T11:13:24;9.70;99.90
17215;DHT22;8723;51.502;6.918;2023-04-24T11:16:16;9.80;99.90
17215;DHT22;8723;51.502;6.918;2023-04-24T11:18:50;10.00;99.90
17215;DHT22;8723;51.502;6.918;2023-04-24T11:21:20;10.20;99.90
17215;DHT22;8723;51.502;6.918;2023-04-24T11:23:47;10.30;99.90
17215;DHT22;8723;51.502;6.918;2023-04-24T11:26:18;10.40;99.90
17215;DHT22;8723;51.502;6.918;2023-04-24T11:28:46;10.50;99.90
17215;DHT22;8723;51.502;6.918;2023-04-24T11:31:39;10.60;99.90
17215;DHT22;8723;51.502;6.918;2023-04-24T11:34:08;10.40;99.90
17215;DHT22;8723;51.502;6.918;2023-04-24T11:36:36;10.20;99.90
17215;DHT22;8723;51.502;6.918;2023-04-24T11:39:03;10.00;99.90
17215;DHT22;8723;51.502;6.918;2023-04-24T11:41:31;9.90;99.90
17215;DHT22;8723;51.502;6.918;2023-04-24T11:43:58;9.90;99.90
17215;DHT22;8723;51.502;6.918;2023-04-24T11:46:28;9.80;99.90
17215;DHT22;8723;51.502;6.918;2023-04-24T11:48:59;9.70;99.90
17215;DHT22;8723;51.502;6.918;2023-04-24T11:51:27;9.70;99.90
17215;DHT22;8723;51.502;6.918;2023-04-24T11:53:54;9.70;99.90
17215;DHT22;8723;51.502;6.918;2023-04-24T11:56:22;9.80;99.90
17215;DHT22;8723;51.502;6.918;2023-04-24T11:58:51;9.90;99.90
17215;DHT22;8723;51.502;6.918;2023-04-24T12:01:18;9.90;99.90
17215;DHT22;8723;51.502;6.918;2023-04-24T12:03:47;10.10;99.90
17215;DHT22;8723;51.502;6.918;2023-04-24T12:06:17;10.20;99.90
17215;DHT22;8723;51.502;6.918;2023-04-24T12:08:46;10.30;99.90
17215;DHT22;8723;51.502;6.918;2023-04-24T12:11:15;10.40;99.90
17215;DHT22;8723;51.502;6.918;2023-04-24T12:13:44;10.40;99.90
17215;DHT22;8723;51.502;6.918;2023-04-24T12:16:11;10.40;99.90
17215;DHT22;8723;51.502;6.918;2023-04-24T12:18:42;10.40;99.90
17215;DHT22;8723;51.502;6.918;2023-04-24T12:21:19;10.30;99.90
17215;DHT22;8723;51.502;6.918;2023-04-24T12:23:48;10.30;99.90
17215;DHT22;8723;51.502;6.918;2023-04-24T12:26:17;10.30;99.90
17215;DHT22;8723;51.502;6.918;2023-04-24T12:28:48;10.20;99.90
17215;DHT22;8723;51.502;6.918;2023-04-24T12:31:15;10.20;99.90
17215;DHT22;8723;51.502;6.918;2023-04-24T12:33:43;10.00;99.90
17215;DHT22;8723;51.502;6.918;2023-04-24T12:36:10;10.00;99.90
17215;DHT22;8723;51.502;6.918;2023-04-24T12:38:43;10.00;99.90
17215;DHT22;8723;51.502;6.918;2023-04-24T12:41:13;10.10;99.90
17215;DHT22;8723;51.502;6.918;2023-04-24T12:43:51;10.30;99.90
17215;DHT22;8723;51.502;6.918;2023-04-24T12:46:18;10.40;99.90
17215;DHT22;8723;51.502;6.918;2023-04-24T12:48:45;10.50;99.90
17215;DHT22;8723;51.502;6.918;2023-04-24T12:51:11;10.50;99.90
17215;DHT22;8723;51.502;6.918;2023-04-24T12:53:40;10.60;99.90
17215;DHT22;8723;51.502;6.918;2023-04-24T12:56:06;10.80;99.90
17215;DHT22;8723;51.502;6.918;2023-04-24T12:58:33;10.90;99.90
17215;DHT22;8723;51.502;6.918;2023-04-24T13:01:00;10.90;99.90
17215;DHT22;8723;51.502;6.918;2023-04-24T13:03:27;11.00;99.90
17215;DHT22;8723;51.502;6.918;2023-04-24T13:05:54;10.90;99.90
17215;DHT22;8723;51.502;6.918;2023-04-24T13:08:21;10.90;1.00
17215;DHT22;8723;51.502;6.918;2023-04-24T13:10:51;10.90;1.00
17215;DHT22;8723;51.502;6.918;2023-04-24T13:13:19;10.90;99.90
17215;DHT22;8723;51.502;6.918;2023-04-24T13:15:46;10.90;1.00
17215;DHT22;8723;51.502;6.918;2023-04-24T13:18:13;10.90;1.00
17215;DHT22;8723;51.502;6.918;2023-04-24T13:20:39;10.90;99.90
17215;DHT22;8723;51.502;6.918;2023-04-24T13:23:07;10.80;99.90
17215;DHT22;8723;51.502;6.918;2023-04-24T13:25:35;10.80;99.90
17215;DHT22;8723;51.502;6.918;2023-04-24T13:28:06;10.70;99.90
17215;DHT22;8723;51.502;6.918;2023-04-24T13:30:33;10.70;99.90
17215;DHT22;8723;51.502;6.918;2023-04-24T13:33:00;10.70;99.90
17215;DHT22;8723;51.502;6.918;2023-04-24T13:35:27;10.70;99.90
17215;DHT22;8723;51.502;6.918;2023-04-24T13:37:54;10.70;99.90
17215;DHT22;8723;51.502;6.918;2023-04-24T13:40:21;10.60;99.90
17215;DHT22;8723;51.502;6.918;2023-04-24T13:42:47;10.70;99.90
17215;DHT22;8723;51.502;6.918;2023-04-24T13:45:15;10.70;99.90
17215;DHT22;8723;51.502;6.918;2023-04-24T13:47:42;10.70;1.00
17215;DHT22;8723;51.502;6.918;2023-04-24T13:50:10;10.80;1.00
17215;DHT22;8723;51.502;6.918;2023-04-24T13:52:36;10.90;99.90
17215;DHT22;8723;51.502;6.918;2023-04-24T13:55:04;11.00;99.90
17215;DHT22;8723;51.502;6.918;2023-04-24T13:57:31;11.30;99.90
17215;DHT22;8723;51.502;6.918;2023-04-24T13:59:58;11.50;99.90
17215;DHT22;8723;51.502;6.918;2023-04-24T14:02:28;11.60;99.90
17215;DHT22;8723;51.502;6.918;2023-04-24T14:04:54;11.70;99.90
17215;DHT22;8723;51.502;6.918;2023-04-24T14:07:21;11.70;99.90
17215;DHT22;8723;51.502;6.918;2023-04-24T14:09:48;11.70;99.90
17215;DHT22;8723;51.502;6.918;2023-04-24T14:12:16;11.60;99.90
17215;DHT22;8723;51.502;6.918;2023-04-24T14:14:45;11.50;99.90
17215;DHT22;8723;51.502;6.918;2023-04-24T14:17:12;11.40;99.90
17215;DHT22;8723;51.502;6.918;2023-04-24T14:19:40;11.30;99.90
17215;DHT22;8723;51.502;6.918;2023-04-24T14:22:07;11.30;99.90
17215;DHT22;8723;51.502;6.918;2023-04-24T14:24:34;11.20;99.90
17215;DHT22;8723;51.502;6.918;2023-04-24T14:27:01;11.20;99.90
17215;DHT22;8723;51.502;6.918;2023-04-24T14:29:28;11.10;99.90
17215;DHT22;8723;51.502;6.918;2023-04-24T14:31:55;11.00;99.90
17215;DHT22;8723;51.502;6.918;2023-04-24T14:34:22;11.00;99.90
17215;DHT22;8723;51.502;6.918;2023-04-24T14:36:51;10.80;99.90
17215;DHT22;8723;51.502;6.918;2023-04-24T14:39:18;10.70;99.90
17215;DHT22;8723;51.502;6.918;2023-04-24T14:41:45;10.60;1.00
17215;DHT22;8723;51.502;6.918;2023-04-24T14:44:12;10.60;99.90
17215;DHT22;8723;51.502;6.918;2023-04-24T14:46:39;10.50;99.90
17215;DHT22;8723;51.502;6.918;2023-04-24T14:49:06;10.50;1.00
17215;DHT22;8723;51.502;6.918;2023-04-24T14:51:35;10.50;1.00
17215;DHT22;8723;51.502;6.918;2023-04-24T14:54:03;10.50;1.00
17215;DHT22;8723;51.502;6.918;2023-04-24T14:56:30;10.40;99.90
17215;DHT22;8723;51.502;6.918;2023-04-24T14:58:57;10.40;1.00
17215;DHT22;8723;51.502;6.918;2023-04-24T15:01:24;10.40;1.00
17215;DHT22;8723;51.502;6.918;2023-04-24T15:03:50;10.50;1.00
17215;DHT22;8723;51.502;6.918;2023-04-24T15:06:17;10.60;1.00
17215;DHT22;8723;51.502;6.918;2023-04-24T15:08:45;10.70;1.00
17215;DHT22;8723;51.502;6.918;2023-04-24T15:11:14;10.80;99.90
17215;DHT22;8723;51.502;6.918;2023-04-24T15:13:41;10.80;93.00
17215;DHT22;8723;51.502;6.918;2023-04-24T15:16:07;10.90;99.90
17215;DHT22;8723;51.502;6.918;2023-04-24T15:18:34;11.00;61.80
17215;DHT22;8723;51.502;6.918;2023-04-24T15:21:01;11.10;1.00
17215;DHT22;8723;51.502;6.918;2023-04-24T15:23:28;11.10;1.00
17215;DHT22;8723;51.502;6.918;2023-04-24T15:25:55;11.20;1.00
17215;DHT22;8723;51.502;6.918;2023-04-24T15:28:24;11.30;1.00
17215;DHT22;8723;51.502;6.918;2023-04-24T15:30:51;11.40;1.00
17215;DHT22;8723;51.502;6.918;2023-04-24T15:33:18;11.40;1.00
17215;DHT22;8723;51.502;6.918;2023-04-24T15:35:46;11.40;99.90
17215;DHT22;8723;51.502;6.918;2023-04-24T15:38:14;11.50;99.90
17215;DHT22;8723;51.502;6.918;2023-04-24T15:40:41;11.50;99.90
17215;DHT22;8723;51.502;6.918;2023-04-24T15:43:08;11.50;99.90
17215;DHT22;8723;51.502;6.918;2023-04-24T15:45:37;11.60;99.90
17215;DHT22;8723;51.502;6.918;2023-04-24T15:48:04;11.60;99.90
17215;DHT22;8723;51.502;6.918;2023-04-24T15:50:31;11.50;99.90
17215;DHT22;8723;51.502;6.918;2023-04-24T15:52:58;11.50;99.90
17215;DHT22;8723;51.502;6.918;2023-04-24T15:55:25;11.60;99.90
17215;DHT22;8723;51.502;6.918;2023-04-24T15:57:53;11.60;99.90
17215;DHT22;8723;51.502;6.918;2023-04-24T16:00:20;11.40;99.90
17215;DHT22;8723;51.502;6.918;2023-04-24T16:02:48;11.30;99.90